sensor_id;sensor_type;location;lat;lon;timestamp;temperature;humidity
6375;DHT22;35400;45.472;-122.822;2023-05-10T00:00:41;19.00;94.30
6375;DHT22;35400;45.472;-122.822;2023-05-10T00:03:08;19.00;93.80
6375;DHT22;35400;45.472;-122.822;2023-05-10T00:05:35;19.00;93.90
6375;DHT22;35400;45.472;-122.822;2023-05-10T00:08:02;19.00;93.50
6375;DHT22;35400;45.472;-122.822;2023-05-10T00:10:29;19.00;94.00
6375;DHT22;35400;45.472;-122.822;2023-05-10T00:12:56;19.00;93.30
6375;DHT22;35400;45.472;-122.822;2023-05-10T00:15:22;19.00;93.80
6375;DHT22;35400;45.472;-122.822;2023-05-10T00:17:49;19.00;93.10
6375;DHT22;35400;45.472;-122.822;2023-05-10T00:20:16;19.00;93.70
6375;DHT22;35400;45.472;-122.822;2023-05-10T00:22:43;19.10;94.00
6375;DHT22;35400;45.472;-122.822;2023-05-10T00:25:10;19.10;93.10
6375;DHT22;35400;45.472;-122.822;2023-05-10T00:27:37;19.10;92.60
6375;DHT22;35400;45.472;-122.822;2023-05-10T00:30:05;19.00;93.50
6375;DHT22;35400;45.472;-122.822;2023-05-10T00:32:32;18.80;92.20
6375;DHT22;35400;45.472;-122.822;2023-05-10T00:34:59;18.70;92.70
6375;DHT22;35400;45.472;-122.822;2023-05-10T00:37:26;18.60;92.30
6375;DHT22;35400;45.472;-122.822;2023-05-10T00:39:54;18.50;92.70
6375;DHT22;35400;45.472;-122.822;2023-05-10T00:42:21;18.40;94.10
6375;DHT22;35400;45.472;-122.822;2023-05-10T00:44:48;18.30;93.30
6375;DHT22;35400;45.472;-122.822;2023-05-10T00:47:17;18.30;93.60
6375;DHT22;35400;45.472;-122.822;2023-05-10T00:49:44;18.20;94.50
6375;DHT22;35400;45.472;-122.822;2023-05-10T00:52:12;18.10;93.30
6375;DHT22;35400;45.472;-122.822;2023-05-10T00:54:41;18.00;93.60
6375;DHT22;35400;45.472;-122.822;2023-05-10T00:57:08;18.00;93.90
6375;DHT22;35400;45.472;-122.822;2023-05-10T00:59:35;17.90;94.10
6375;DHT22;35400;45.472;-122.822;2023-05-10T01:02:02;17.90;94.20
6375;DHT22;35400;45.472;-122.822;2023-05-10T01:04:30;17.80;94.30
6375;DHT22;35400;45.472;-122.822;2023-05-10T01:06:57;17.80;93.90
6375;DHT22;35400;45.472;-122.822;2023-05-10T01:09:24;17.90;93.50
6375;DHT22;35400;45.472;-122.822;2023-05-10T01:11:53;17.90;93.60
6375;DHT22;35400;45.472;-122.822;2023-05-10T01:14:20;18.00;93.70
6375;DHT22;35400;45.472;-122.822;2023-05-10T01:16:49;18.10;92.70
6375;DHT22;35400;45.472;-122.822;2023-05-10T01:19:22;18.10;92.30
6375;DHT22;35400;45.472;-122.822;2023-05-10T01:27:43;18.10;92.20
6375;DHT22;35400;45.472;-122.822;2023-05-10T01:33:01;18.10;92.40
6375;DHT22;35400;45.472;-122.822;2023-05-10T01:36:05;18.20;92.10
6375;DHT22;35400;45.472;-122.822;2023-05-10T01:41:08;18.20;93.50
6375;DHT22;35400;45.472;-122.822;2023-05-10T01:43:47;18.10;92.90
6375;DHT22;35400;45.472;-122.822;2023-05-10T01:46:20;18.10;92.90
6375;DHT22;35400;45.472;-122.822;2023-05-10T01:48:54;18.10;92.80
6375;DHT22;35400;45.472;-122.822;2023-05-10T01:51:26;18.10;92.60
6375;DHT22;35400;45.472;-122.822;2023-05-10T01:54:00;18.10;92.30
6375;DHT22;35400;45.472;-122.822;2023-05-10T01:56:30;18.10;92.40
6375;DHT22;35400;45.472;-122.822;2023-05-10T01:59:00;18.10;92.10
6375;DHT22;35400;45.472;-122.822;2023-05-10T02:01:31;18.00;92.30
6375;DHT22;35400;45.472;-122.822;2023-05-10T02:04:00;18.00;91.90
6375;DHT22;35400;45.472;-122.822;2023-05-10T02:06:29;18.00;92.60
6375;DHT22;35400;45.472;-122.822;2023-05-10T02:08:57;17.90;92.80
6375;DHT22;35400;45.472;-122.822;2023-05-10T02:11:25;17.90;93.30
6375;DHT22;35400;45.472;-122.822;2023-05-10T02:13:53;17.80;93.80
6375;DHT22;35400;45.472;-122.822;2023-05-10T02:16:27;17.80;92.90
6375;DHT22;35400;45.472;-122.822;2023-05-10T02:18:58;17.80;92.40
6375;DHT22;35400;45.472;-122.822;2023-05-10T02:21:26;17.70;93.30
6375;DHT22;35400;45.472;-122.822;2023-05-10T02:23:54;17.70;93.50
6375;DHT22;35400;45.472;-122.822;2023-05-10T02:26:22;17.60;93.70
6375;DHT22;35400;45.472;-122.822;2023-05-10T02:28:51;17.60;93.60
6375;DHT22;35400;45.472;-122.822;2023-05-10T02:31:19;17.50;94.10
6375;DHT22;35400;45.472;-122.822;2023-05-10T02:33:48;17.40;94.40
6375;DHT22;35400;45.472;-122.822;2023-05-10T02:36:18;17.30;94.60
6375;DHT22;35400;45.472;-122.822;2023-05-10T02:38:47;17.30;94.80
6375;DHT22;35400;45.472;-122.822;2023-05-10T02:41:16;17.30;94.30
6375;DHT22;35400;45.472;-122.822;2023-05-10T02:43:45;17.30;93.70
6375;DHT22;35400;45.472;-122.822;2023-05-10T02:46:13;17.20;94.40
6375;DHT22;35400;45.472;-122.822;2023-05-10T02:48:40;17.10;94.90
6375;DHT22;35400;45.472;-122.822;2023-05-10T02:51:08;17.10;94.90
6375;DHT22;35400;45.472;-122.822;2023-05-10T02:53:40;17.00;95.20
6375;DHT22;35400;45.472;-122.822;2023-05-10T02:56:20;17.00;95.80
6375;DHT22;35400;45.472;-122.822;2023-05-10T02:58:51;16.90;96.10
6375;DHT22;35400;45.472;-122.822;2023-05-10T03:01:18;16.80;96.10
6375;DHT22;35400;45.472;-122.822;2023-05-10T03:03:45;16.80;96.10
6375;DHT22;35400;45.472;-122.822;2023-05-10T03:06:12;16.80;96.60
6375;DHT22;35400;45.472;-122.822;2023-05-10T03:08:39;16.70;96.70
6375;DHT22;35400;45.472;-122.822;2023-05-10T03:14:13;16.60;97.00
6375;DHT22;35400;45.472;-122.822;2023-05-10T03:16:50;16.40;97.10
6375;DHT22;35400;45.472;-122.822;2023-05-10T03:19:30;16.40;97.40
6375;DHT22;35400;45.472;-122.822;2023-05-10T03:22:10;16.30;97.70
6375;DHT22;35400;45.472;-122.822;2023-05-10T03:24:39;16.20;98.10
6375;DHT22;35400;45.472;-122.822;2023-05-10T03:27:10;16.10;98.50
6375;DHT22;35400;45.472;-122.822;2023-05-10T03:29:39;16.00;99.00
6375;DHT22;35400;45.472;-122.822;2023-05-10T03:32:06;15.90;99.30
6375;DHT22;35400;45.472;-122.822;2023-05-10T03:34:33;15.80;99.60
6375;DHT22;35400;45.472;-122.822;2023-05-10T03:37:00;15.80;99.90
6375;DHT22;35400;45.472;-122.822;2023-05-10T03:39:30;15.70;99.90
6375;DHT22;35400;45.472;-122.822;2023-05-10T03:41:59;15.60;99.90
6375;DHT22;35400;45.472;-122.822;2023-05-10T03:44:26;15.50;99.90
6375;DHT22;35400;45.472;-122.822;2023-05-10T03:46:52;15.40;99.90
6375;DHT22;35400;45.472;-122.822;2023-05-10T03:49:19;15.30;99.90
6375;DHT22;35400;45.472;-122.822;2023-05-10T03:51:47;15.30;99.90
6375;DHT22;35400;45.472;-122.822;2023-05-10T03:54:15;15.20;99.90
6375;DHT22;35400;45.472;-122.822;2023-05-10T03:56:42;15.00;99.90
6375;DHT22;35400;45.472;-122.822;2023-05-10T03:59:09;15.00;99.90
6375;DHT22;35400;45.472;-122.822;2023-05-10T04:01:36;14.90;99.90
6375;DHT22;35400;45.472;-122.822;2023-05-10T04:04:03;14.80;99.90
6375;DHT22;35400;45.472;-122.822;2023-05-10T04:06:31;14.70;99.90
6375;DHT22;35400;45.472;-122.822;2023-05-10T04:08:58;14.60;99.90
6375;DHT22;35400;45.472;-122.822;2023-05-10T04:11:30;14.60;99.90
6375;DHT22;35400;45.472;-122.822;2023-05-10T04:13:57;14.50;99.90
6375;DHT22;35400;45.472;-122.822;2023-05-10T04:16:24;14.40;99.90
6375;DHT22;35400;45.472;-122.822;2023-05-10T04:18:51;14.40;99.90
6375;DHT22;35400;45.472;-122.822;2023-05-10T04:21:18;14.30;99.90
6375;DHT22;35400;45.472;-122.822;2023-05-10T04:23:45;14.20;99.90
6375;DHT22;35400;45.472;-122.822;2023-05-10T04:26:12;14.10;99.90
6375;DHT22;35400;45.472;-122.822;2023-05-10T04:28:39;14.00;99.90
6375;DHT22;35400;45.472;-122.822;2023-05-10T04:31:07;14.00;99.90
6375;DHT22;35400;45.472;-122.822;2023-05-10T04:33:34;13.90;99.90
6375;DHT22;35400;45.472;-122.822;2023-05-10T04:36:02;13.80;99.90
6375;DHT22;35400;45.472;-122.822;2023-05-10T04:38:29;13.70;99.90
6375;DHT22;35400;45.472;-122.822;2023-05-10T04:41:09;13.70;99.90
6375;DHT22;35400;45.472;-122.822;2023-05-10T04:43:37;13.60;99.90
6375;DHT22;35400;45.472;-122.822;2023-05-10T04:46:05;13.50;99.90
6375;DHT22;35400;45.472;-122.822;2023-05-10T04:48:33;13.50;99.90
6375;DHT22;35400;45.472;-122.822;2023-05-10T04:51:00;13.40;99.90
6375;DHT22;35400;45.472;-122.822;2023-05-10T04:53:27;13.30;99.90
6375;DHT22;35400;45.472;-122.822;2023-05-10T04:55:54;13.20;99.90
6375;DHT22;35400;45.472;-122.822;2023-05-10T04:58:21;13.10;99.90
6375;DHT22;35400;45.472;-122.822;2023-05-10T05:00:48;13.10;99.90
6375;DHT22;35400;45.472;-122.822;2023-05-10T05:03:15;13.10;99.90
6375;DHT22;35400;45.472;-122.822;2023-05-10T05:05:43;13.00;99.90
6375;DHT22;35400;45.472;-122.822;2023-05-10T05:08:09;12.90;99.90
6375;DHT22;35400;45.472;-122.822;2023-05-10T05:10:36;12.80;99.90
6375;DHT22;35400;45.472;-122.822;2023-05-10T05:13:03;12.80;99.90
6375;DHT22;35400;45.472;-122.822;2023-05-10T05:15:30;12.70;99.90
6375;DHT22;35400;45.472;-122.822;2023-05-10T05:17:57;12.60;99.90
6375;DHT22;35400;45.472;-122.822;2023-05-10T05:20:24;12.60;99.90
6375;DHT22;35400;45.472;-122.822;2023-05-10T05:22:50;12.50;99.90
6375;DHT22;35400;45.472;-122.822;2023-05-10T05:25:17;12.50;99.90
6375;DHT22;35400;45.472;-122.822;2023-05-10T05:27:44;12.40;99.90
6375;DHT22;35400;45.472;-122.822;2023-05-10T05:30:11;12.40;99.90
6375;DHT22;35400;45.472;-122.822;2023-05-10T05:32:38;12.30;99.90
6375;DHT22;35400;45.472;-122.822;2023-05-10T05:35:05;12.30;99.90
6375;DHT22;35400;45.472;-122.822;2023-05-10T05:37:33;12.30;99.90
6375;DHT22;35400;45.472;-122.822;2023-05-10T05:39:59;12.20;99.90
6375;DHT22;35400;45.472;-122.822;2023-05-10T05:42:28;12.20;99.90
6375;DHT22;35400;45.472;-122.822;2023-05-10T05:44:54;12.20;99.90
6375;DHT22;35400;45.472;-122.822;2023-05-10T05:47:21;12.10;99.90
6375;DHT22;35400;45.472;-122.822;2023-05-10T05:49:48;12.30;99.90
6375;DHT22;35400;45.472;-122.822;2023-05-10T05:52:15;12.00;99.90
6375;DHT22;35400;45.472;-122.822;2023-05-10T05:54:42;12.00;99.90
6375;DHT22;35400;45.472;-122.822;2023-05-10T05:57:10;11.90;99.90
6375;DHT22;35400;45.472;-122.822;2023-05-10T05:59:36;11.90;99.90
6375;DHT22;35400;45.472;-122.822;2023-05-10T06:02:10;11.90;99.90
6375;DHT22;35400;45.472;-122.822;2023-05-10T06:04:36;11.80;99.90
6375;DHT22;35400;45.472;-122.822;2023-05-10T06:07:04;11.80;99.90
6375;DHT22;35400;45.472;-122.822;2023-05-10T06:09:30;11.80;99.90
6375;DHT22;35400;45.472;-122.822;2023-05-10T06:11:57;11.80;99.90
6375;DHT22;35400;45.472;-122.822;2023-05-10T06:14:24;11.80;99.90
6375;DHT22;35400;45.472;-122.822;2023-05-10T06:16:51;11.70;99.90
6375;DHT22;35400;45.472;-122.822;2023-05-10T06:19:18;11.70;99.90
6375;DHT22;35400;45.472;-122.822;2023-05-10T06:21:45;11.70;99.90
6375;DHT22;35400;45.472;-122.822;2023-05-10T06:24:11;11.70;99.90
6375;DHT22;35400;45.472;-122.822;2023-05-10T06:26:39;11.70;99.90
6375;DHT22;35400;45.472;-122.822;2023-05-10T06:29:05;11.60;99.90
6375;DHT22;35400;45.472;-122.822;2023-05-10T06:31:32;11.60;99.90
6375;DHT22;35400;45.472;-122.822;2023-05-10T06:33:59;11.60;99.90
6375;DHT22;35400;45.472;-122.822;2023-05-10T06:36:26;11.60;99.90
6375;DHT22;35400;45.472;-122.822;2023-05-10T06:38:53;11.50;99.90
6375;DHT22;35400;45.472;-122.822;2023-05-10T06:41:20;11.50;99.90
6375;DHT22;35400;45.472;-122.822;2023-05-10T06:43:47;11.50;99.90
6375;DHT22;35400;45.472;-122.822;2023-05-10T06:46:14;11.40;99.90
6375;DHT22;35400;45.472;-122.822;2023-05-10T06:48:40;11.40;99.90
6375;DHT22;35400;45.472;-122.822;2023-05-10T06:51:09;11.40;99.90
6375;DHT22;35400;45.472;-122.822;2023-05-10T06:53:36;11.40;99.90
6375;DHT22;35400;45.472;-122.822;2023-05-10T06:56:03;11.40;99.90
6375;DHT22;35400;45.472;-122.822;2023-05-10T06:58:30;11.30;99.90
6375;DHT22;35400;45.472;-122.822;2023-05-10T07:01:03;11.30;99.90
6375;DHT22;35400;45.472;-122.822;2023-05-10T07:03:30;11.30;99.90
6375;DHT22;35400;45.472;-122.822;2023-05-10T07:06:03;11.30;99.90
6375;DHT22;35400;45.472;-122.822;2023-05-10T07:08:34;11.30;99.90
6375;DHT22;35400;45.472;-122.822;2023-05-10T07:11:05;11.30;99.90
6375;DHT22;35400;45.472;-122.822;2023-05-10T07:13:35;11.30;99.90
6375;DHT22;35400;45.472;-122.822;2023-05-10T07:16:02;11.30;99.90
6375;DHT22;35400;45.472;-122.822;2023-05-10T07:18:29;11.30;99.90
6375;DHT22;35400;45.472;-122.822;2023-05-10T07:20:57;11.20;99.90
6375;DHT22;35400;45.472;-122.822;2023-05-10T07:23:24;11.20;99.90
6375;DHT22;35400;45.472;-122.822;2023-05-10T07:25:51;11.20;99.90
6375;DHT22;35400;45.472;-122.822;2023-05-10T07:28:18;11.20;99.90
6375;DHT22;35400;45.472;-122.822;2023-05-10T07:30:45;11.10;99.90
6375;DHT22;35400;45.472;-122.822;2023-05-10T07:33:13;11.10;99.90
6375;DHT22;35400;45.472;-122.822;2023-05-10T07:35:40;11.10;99.90
6375;DHT22;35400;45.472;-122.822;2023-05-10T07:38:07;11.00;99.90
6375;DHT22;35400;45.472;-122.822;2023-05-10T07:40:34;11.00;99.90
6375;DHT22;35400;45.472;-122.822;2023-05-10T07:43:01;10.90;99.90
6375;DHT22;35400;45.472;-122.822;2023-05-10T07:45:28;10.90;99.90
6375;DHT22;35400;45.472;-122.822;2023-05-10T07:47:55;10.80;99.90
6375;DHT22;35400;45.472;-122.822;2023-05-10T07:50:22;10.80;99.90
6375;DHT22;35400;45.472;-122.822;2023-05-10T07:52:49;10.80;99.90
6375;DHT22;35400;45.472;-122.822;2023-05-10T07:55:17;10.70;99.90
6375;DHT22;35400;45.472;-122.822;2023-05-10T07:57:44;10.70;99.90
6375;DHT22;35400;45.472;-122.822;2023-05-10T08:00:13;10.60;99.90
6375;DHT22;35400;45.472;-122.822;2023-05-10T08:02:43;10.60;99.90
6375;DHT22;35400;45.472;-122.822;2023-05-10T08:05:10;10.60;99.90
6375;DHT22;35400;45.472;-122.822;2023-05-10T08:07:37;10.50;99.90
6375;DHT22;35400;45.472;-122.822;2023-05-10T08:10:04;10.50;99.90
6375;DHT22;35400;45.472;-122.822;2023-05-10T08:12:31;10.40;99.90
6375;DHT22;35400;45.472;-122.822;2023-05-10T08:14:57;10.40;99.90
6375;DHT22;35400;45.472;-122.822;2023-05-10T08:17:24;10.30;99.90
6375;DHT22;35400;45.472;-122.822;2023-05-10T08:19:51;10.30;99.90
6375;DHT22;35400;45.472;-122.822;2023-05-10T08:22:19;10.30;99.90
6375;DHT22;35400;45.472;-122.822;2023-05-10T08:24:45;10.20;99.90
6375;DHT22;35400;45.472;-122.822;2023-05-10T08:27:12;10.20;99.90
6375;DHT22;35400;45.472;-122.822;2023-05-10T08:29:39;10.10;99.90
6375;DHT22;35400;45.472;-122.822;2023-05-10T08:32:06;10.10;99.90
6375;DHT22;35400;45.472;-122.822;2023-05-10T08:34:33;10.00;99.90
6375;DHT22;35400;45.472;-122.822;2023-05-10T08:37:00;10.00;99.90
6375;DHT22;35400;45.472;-122.822;2023-05-10T08:39:26;9.90;99.90
6375;DHT22;35400;45.472;-122.822;2023-05-10T08:41:54;9.90;99.90
6375;DHT22;35400;45.472;-122.822;2023-05-10T08:44:25;9.90;99.90
6375;DHT22;35400;45.472;-122.822;2023-05-10T08:46:53;9.80;99.90
6375;DHT22;35400;45.472;-122.822;2023-05-10T08:49:22;9.80;99.90
6375;DHT22;35400;45.472;-122.822;2023-05-10T08:51:52;9.70;99.90
6375;DHT22;35400;45.472;-122.822;2023-05-10T08:54:21;9.70;99.90
6375;DHT22;35400;45.472;-122.822;2023-05-10T08:56:49;9.70;99.90
6375;DHT22;35400;45.472;-122.822;2023-05-10T08:59:16;9.60;99.90
6375;DHT22;35400;45.472;-122.822;2023-05-10T09:01:44;9.50;99.90
6375;DHT22;35400;45.472;-122.822;2023-05-10T09:04:12;9.50;99.90
6375;DHT22;35400;45.472;-122.822;2023-05-10T09:06:39;9.40;99.90
6375;DHT22;35400;45.472;-122.822;2023-05-10T09:11:37;9.30;99.90
6375;DHT22;35400;45.472;-122.822;2023-05-10T09:14:04;9.30;99.90
6375;DHT22;35400;45.472;-122.822;2023-05-10T09:16:31;9.30;99.90
6375;DHT22;35400;45.472;-122.822;2023-05-10T09:18:58;9.20;99.90
6375;DHT22;35400;45.472;-122.822;2023-05-10T09:21:25;9.20;99.90
6375;DHT22;35400;45.472;-122.822;2023-05-10T09:23:52;9.10;99.90
6375;DHT22;35400;45.472;-122.822;2023-05-10T09:26:23;9.10;99.90
6375;DHT22;35400;45.472;-122.822;2023-05-10T09:28:55;9.00;99.90
6375;DHT22;35400;45.472;-122.822;2023-05-10T09:31:23;9.00;99.90
6375;DHT22;35400;45.472;-122.822;2023-05-10T09:33:51;9.00;99.90
6375;DHT22;35400;45.472;-122.822;2023-05-10T09:36:18;8.90;99.90
6375;DHT22;35400;45.472;-122.822;2023-05-10T09:38:46;8.90;99.90
6375;DHT22;35400;45.472;-122.822;2023-05-10T09:41:18;8.90;99.90
6375;DHT22;35400;45.472;-122.822;2023-05-10T09:43:45;8.90;99.90
6375;DHT22;35400;45.472;-122.822;2023-05-10T09:46:12;8.80;99.90
6375;DHT22;35400;45.472;-122.822;2023-05-10T09:48:45;8.70;99.90
6375;DHT22;35400;45.472;-122.822;2023-05-10T09:51:20;8.70;99.90
6375;DHT22;35400;45.472;-122.822;2023-05-10T09:53:48;8.70;99.90
6375;DHT22;35400;45.472;-122.822;2023-05-10T09:56:45;8.70;99.90
6375;DHT22;35400;45.472;-122.822;2023-05-10T09:59:12;8.70;99.90
6375;DHT22;35400;45.472;-122.822;2023-05-10T10:01:39;8.60;99.90
6375;DHT22;35400;45.472;-122.822;2023-05-10T10:04:08;8.60;99.90
6375;DHT22;35400;45.472;-122.822;2023-05-10T10:06:40;8.50;99.90
6375;DHT22;35400;45.472;-122.822;2023-05-10T10:09:08;8.50;99.90
6375;DHT22;35400;45.472;-122.822;2023-05-10T10:11:37;8.40;99.90
6375;DHT22;35400;45.472;-122.822;2023-05-10T10:14:04;8.40;99.90
6375;DHT22;35400;45.472;-122.822;2023-05-10T10:16:32;8.40;99.90
6375;DHT22;35400;45.472;-122.822;2023-05-10T10:18:59;8.30;99.90
6375;DHT22;35400;45.472;-122.822;2023-05-10T10:21:27;8.30;99.90
6375;DHT22;35400;45.472;-122.822;2023-05-10T10:23:53;8.20;99.90
6375;DHT22;35400;45.472;-122.822;2023-05-10T10:26:21;8.20;99.90
6375;DHT22;35400;45.472;-122.822;2023-05-10T10:34:29;8.10;99.90
6375;DHT22;35400;45.472;-122.822;2023-05-10T10:36:57;8.10;99.90
6375;DHT22;35400;45.472;-122.822;2023-05-10T10:39:24;8.10;99.90
6375;DHT22;35400;45.472;-122.822;2023-05-10T10:41:58;8.00;99.90
6375;DHT22;35400;45.472;-122.822;2023-05-10T10:55:01;7.80;99.90
6375;DHT22;35400;45.472;-122.822;2023-05-10T10:57:32;7.80;99.90
6375;DHT22;35400;45.472;-122.822;2023-05-10T11:00:27;7.80;99.90
6375;DHT22;35400;45.472;-122.822;2023-05-10T11:05:42;7.70;99.90
6375;DHT22;35400;45.472;-122.822;2023-05-10T11:08:11;7.60;99.90
6375;DHT22;35400;45.472;-122.822;2023-05-10T11:11:20;7.60;99.90
6375;DHT22;35400;45.472;-122.822;2023-05-10T11:13:44;7.60;99.90
6375;DHT22;35400;45.472;-122.822;2023-05-10T11:16:15;7.50;99.90
6375;DHT22;35400;45.472;-122.822;2023-05-10T11:19:03;7.50;99.90
6375;DHT22;35400;45.472;-122.822;2023-05-10T11:21:31;7.50;99.90
6375;DHT22;35400;45.472;-122.822;2023-05-10T11:24:00;7.40;99.90
6375;DHT22;35400;45.472;-122.822;2023-05-10T11:26:34;7.40;99.90
6375;DHT22;35400;45.472;-122.822;2023-05-10T11:29:01;7.40;99.90
6375;DHT22;35400;45.472;-122.822;2023-05-10T11:31:29;7.30;99.90
6375;DHT22;35400;45.472;-122.822;2023-05-10T11:36:35;7.30;99.90
6375;DHT22;35400;45.472;-122.822;2023-05-10T11:39:02;7.30;99.90
6375;DHT22;35400;45.472;-122.822;2023-05-10T11:41:30;7.20;99.90
6375;DHT22;35400;45.472;-122.822;2023-05-10T11:43:58;7.20;99.90
6375;DHT22;35400;45.472;-122.822;2023-05-10T11:46:26;7.20;99.90
6375;DHT22;35400;45.472;-122.822;2023-05-10T11:48:58;7.20;99.90
6375;DHT22;35400;45.472;-122.822;2023-05-10T11:51:28;7.20;99.90
6375;DHT22;35400;45.472;-122.822;2023-05-10T11:53:56;7.10;99.90
6375;DHT22;35400;45.472;-122.822;2023-05-10T11:56:23;7.10;99.90
6375;DHT22;35400;45.472;-122.822;2023-05-10T11:58:56;7.10;99.90
6375;DHT22;35400;45.472;-122.822;2023-05-10T12:01:25;7.00;99.90
6375;DHT22;35400;45.472;-122.822;2023-05-10T12:03:54;7.00;99.90
6375;DHT22;35400;45.472;-122.822;2023-05-10T12:06:22;7.00;99.90
6375;DHT22;35400;45.472;-122.822;2023-05-10T12:08:49;7.00;99.90
6375;DHT22;35400;45.472;-122.822;2023-05-10T12:11:20;6.90;99.90
6375;DHT22;35400;45.472;-122.822;2023-05-10T12:13:51;6.90;99.90
6375;DHT22;35400;45.472;-122.822;2023-05-10T12:16:24;6.90;99.90
6375;DHT22;35400;45.472;-122.822;2023-05-10T12:18:53;6.90;99.90
6375;DHT22;35400;45.472;-122.822;2023-05-10T12:21:21;6.90;99.90
6375;DHT22;35400;45.472;-122.822;2023-05-10T12:23:52;6.90;99.90
6375;DHT22;35400;45.472;-122.822;2023-05-10T12:26:25;6.90;99.90
6375;DHT22;35400;45.472;-122.822;2023-05-10T12:29:12;6.80;99.90
6375;DHT22;35400;45.472;-122.822;2023-05-10T12:31:56;6.80;99.90
6375;DHT22;35400;45.472;-122.822;2023-05-10T12:34:34;6.80;99.90
6375;DHT22;35400;45.472;-122.822;2023-05-10T12:37:03;6.80;99.90
6375;DHT22;35400;45.472;-122.822;2023-05-10T12:39:40;6.70;99.90
6375;DHT22;35400;45.472;-122.822;2023-05-10T12:42:09;6.70;99.90
6375;DHT22;35400;45.472;-122.822;2023-05-10T12:44:36;6.70;99.90
6375;DHT22;35400;45.472;-122.822;2023-05-10T12:47:03;6.70;99.90
6375;DHT22;35400;45.472;-122.822;2023-05-10T12:49:30;6.60;99.90
6375;DHT22;35400;45.472;-122.822;2023-05-10T12:51:57;6.60;99.90
6375;DHT22;35400;45.472;-122.822;2023-05-10T12:54:24;6.60;99.90
6375;DHT22;35400;45.472;-122.822;2023-05-10T12:56:51;6.60;99.90
6375;DHT22;35400;45.472;-122.822;2023-05-10T12:59:18;6.60;99.90
6375;DHT22;35400;45.472;-122.822;2023-05-10T13:01:45;6.60;99.90
6375;DHT22;35400;45.472;-122.822;2023-05-10T13:04:12;6.60;99.90
6375;DHT22;35400;45.472;-122.822;2023-05-10T13:06:38;6.60;99.90
6375;DHT22;35400;45.472;-122.822;2023-05-10T13:09:05;6.60;99.90
6375;DHT22;35400;45.472;-122.822;2023-05-10T13:11:32;6.60;99.90
6375;DHT22;35400;45.472;-122.822;2023-05-10T13:13:59;6.60;99.90
6375;DHT22;35400;45.472;-122.822;2023-05-10T13:16:26;6.60;99.90
6375;DHT22;35400;45.472;-122.822;2023-05-10T13:18:53;6.60;99.90
6375;DHT22;35400;45.472;-122.822;2023-05-10T13:21:20;6.60;99.90
6375;DHT22;35400;45.472;-122.822;2023-05-10T13:23:47;6.60;99.90
6375;DHT22;35400;45.472;-122.822;2023-05-10T13:26:13;6.70;99.90
6375;DHT22;35400;45.472;-122.822;2023-05-10T13:28:40;6.70;99.90
6375;DHT22;35400;45.472;-122.822;2023-05-10T13:31:07;6.80;99.90
6375;DHT22;35400;45.472;-122.822;2023-05-10T13:33:34;6.90;99.90
6375;DHT22;35400;45.472;-122.822;2023-05-10T13:36:01;7.00;99.90
6375;DHT22;35400;45.472;-122.822;2023-05-10T13:38:28;7.00;99.90
6375;DHT22;35400;45.472;-122.822;2023-05-10T13:40:55;7.10;99.90
6375;DHT22;35400;45.472;-122.822;2023-05-10T13:43:22;7.10;99.90
6375;DHT22;35400;45.472;-122.822;2023-05-10T13:45:49;7.20;99.90
6375;DHT22;35400;45.472;-122.822;2023-05-10T13:48:15;7.30;99.90
6375;DHT22;35400;45.472;-122.822;2023-05-10T13:50:43;7.30;99.90
6375;DHT22;35400;45.472;-122.822;2023-05-10T13:53:10;7.40;99.90
6375;DHT22;35400;45.472;-122.822;2023-05-10T13:55:37;7.50;99.90
6375;DHT22;35400;45.472;-122.822;2023-05-10T13:58:04;7.60;99.90
6375;DHT22;35400;45.472;-122.822;2023-05-10T14:00:31;7.70;99.90
6375;DHT22;35400;45.472;-122.822;2023-05-10T14:02:58;7.80;99.90
6375;DHT22;35400;45.472;-122.822;2023-05-10T14:05:24;7.90;99.90
6375;DHT22;35400;45.472;-122.822;2023-05-10T14:07:51;8.10;99.90
6375;DHT22;35400;45.472;-122.822;2023-05-10T14:10:18;8.20;99.90
6375;DHT22;35400;45.472;-122.822;2023-05-10T14:12:45;8.40;99.90
6375;DHT22;35400;45.472;-122.822;2023-05-10T14:15:12;8.50;99.90
6375;DHT22;35400;45.472;-122.822;2023-05-10T14:17:39;8.60;99.90
6375;DHT22;35400;45.472;-122.822;2023-05-10T14:20:07;8.80;99.90
6375;DHT22;35400;45.472;-122.822;2023-05-10T14:22:34;9.00;99.90
6375;DHT22;35400;45.472;-122.822;2023-05-10T14:25:01;9.10;99.90
6375;DHT22;35400;45.472;-122.822;2023-05-10T14:27:28;9.30;99.90
6375;DHT22;35400;45.472;-122.822;2023-05-10T14:29:56;9.40;99.90
6375;DHT22;35400;45.472;-122.822;2023-05-10T14:32:23;9.50;99.90
6375;DHT22;35400;45.472;-122.822;2023-05-10T14:34:50;9.70;99.90
6375;DHT22;35400;45.472;-122.822;2023-05-10T14:37:16;9.80;99.90
6375;DHT22;35400;45.472;-122.822;2023-05-10T14:39:43;9.90;99.90
6375;DHT22;35400;45.472;-122.822;2023-05-10T14:42:10;10.20;99.90
6375;DHT22;35400;45.472;-122.822;2023-05-10T14:44:37;10.40;99.90
6375;DHT22;35400;45.472;-122.822;2023-05-10T14:47:04;10.70;99.90
6375;DHT22;35400;45.472;-122.822;2023-05-10T14:49:31;10.90;99.90
6375;DHT22;35400;45.472;-122.822;2023-05-10T14:51:57;11.30;99.90
6375;DHT22;35400;45.472;-122.822;2023-05-10T14:54:24;11.60;99.90
6375;DHT22;35400;45.472;-122.822;2023-05-10T14:56:52;11.90;99.90
6375;DHT22;35400;45.472;-122.822;2023-05-10T14:59:19;12.30;99.90
6375;DHT22;35400;45.472;-122.822;2023-05-10T15:01:46;12.70;99.90
6375;DHT22;35400;45.472;-122.822;2023-05-10T15:04:13;13.10;99.90
6375;DHT22;35400;45.472;-122.822;2023-05-10T15:06:42;13.60;99.90
6375;DHT22;35400;45.472;-122.822;2023-05-10T15:09:09;14.00;99.90
6375;DHT22;35400;45.472;-122.822;2023-05-10T15:11:36;14.80;99.90
6375;DHT22;35400;45.472;-122.822;2023-05-10T15:14:03;16.20;99.90
6375;DHT22;35400;45.472;-122.822;2023-05-10T15:16:29;18.40;99.90
6375;DHT22;35400;45.472;-122.822;2023-05-10T15:18:56;20.50;99.90
6375;DHT22;35400;45.472;-122.822;2023-05-10T15:21:23;22.80;99.90
6375;DHT22;35400;45.472;-122.822;2023-05-10T15:23:50;24.40;99.90
6375;DHT22;35400;45.472;-122.822;2023-05-10T15:26:17;26.10;94.70
6375;DHT22;35400;45.472;-122.822;2023-05-10T15:28:44;27.80;85.10
6375;DHT22;35400;45.472;-122.822;2023-05-10T15:31:10;28.60;80.50
6375;DHT22;35400;45.472;-122.822;2023-05-10T15:33:37;30.10;74.00
6375;DHT22;35400;45.472;-122.822;2023-05-10T15:36:05;30.90;68.30
6375;DHT22;35400;45.472;-122.822;2023-05-10T15:38:32;32.40;59.40
6375;DHT22;35400;45.472;-122.822;2023-05-10T15:40:59;32.50;58.80
6375;DHT22;35400;45.472;-122.822;2023-05-10T15:43:26;33.10;56.50
6375;DHT22;35400;45.472;-122.822;2023-05-10T15:45:53;33.70;54.20
6375;DHT22;35400;45.472;-122.822;2023-05-10T15:48:20;34.20;52.30
6375;DHT22;35400;45.472;-122.822;2023-05-10T15:50:47;34.40;50.90
6375;DHT22;35400;45.472;-122.822;2023-05-10T15:53:14;34.80;49.30